sensor_id;sensor_type;location;lat;lon;timestamp;temperature;humidity
26621;DHT22;14253;44.840;10.444;2023-04-25T00:02:22;12.20;99.90
26621;DHT22;14253;44.840;10.444;2023-04-25T00:04:48;12.20;99.90
26621;DHT22;14253;44.840;10.444;2023-04-25T00:07:14;12.10;99.90
26621;DHT22;14253;44.840;10.444;2023-04-25T00:09:41;12.10;99.90
26621;DHT22;14253;44.840;10.444;2023-04-25T00:12:07;12.10;99.90
26621;DHT22;14253;44.840;10.444;2023-04-25T00:14:33;12.10;99.90
26621;DHT22;14253;44.840;10.444;2023-04-25T00:17:00;12.00;99.90
26621;DHT22;14253;44.840;10.444;2023-04-25T00:19:26;11.90;99.90
26621;DHT22;14253;44.840;10.444;2023-04-25T00:21:57;11.80;99.90
26621;DHT22;14253;44.840;10.444;2023-04-25T00:24:23;11.90;99.90
26621;DHT22;14253;44.840;10.444;2023-04-25T00:26:49;12.00;99.90
26621;DHT22;14253;44.840;10.444;2023-04-25T00:29:14;11.90;99.90
26621;DHT22;14253;44.840;10.444;2023-04-25T00:31:40;11.80;99.90
26621;DHT22;14253;44.840;10.444;2023-04-25T00:34:07;11.70;99.90
26621;DHT22;14253;44.840;10.444;2023-04-25T00:36:35;11.80;99.90
26621;DHT22;14253;44.840;10.444;2023-04-25T00:39:00;11.80;99.90
26621;DHT22;14253;44.840;10.444;2023-04-25T00:41:26;11.80;99.90
26621;DHT22;14253;44.840;10.444;2023-04-25T00:43:54;11.80;99.90
26621;DHT22;14253;44.840;10.444;2023-04-25T00:46:20;11.80;99.90
26621;DHT22;14253;44.840;10.444;2023-04-25T00:48:46;11.70;99.90
26621;DHT22;14253;44.840;10.444;2023-04-25T00:51:17;11.70;99.90
26621;DHT22;14253;44.840;10.444;2023-04-25T00:53:45;11.60;99.90
26621;DHT22;14253;44.840;10.444;2023-04-25T00:56:11;11.70;99.90
26621;DHT22;14253;44.840;10.444;2023-04-25T00:58:37;11.60;99.90
26621;DHT22;14253;44.840;10.444;2023-04-25T01:01:04;11.60;99.90
26621;DHT22;14253;44.840;10.444;2023-04-25T01:03:32;11.60;99.90
26621;DHT22;14253;44.840;10.444;2023-04-25T01:05:58;11.60;99.90
26621;DHT22;14253;44.840;10.444;2023-04-25T01:08:24;11.50;99.90
26621;DHT22;14253;44.840;10.444;2023-04-25T01:10:53;11.50;99.90
26621;DHT22;14253;44.840;10.444;2023-04-25T01:13:19;11.50;99.90
26621;DHT22;14253;44.840;10.444;2023-04-25T01:15:45;11.50;99.90
26621;DHT22;14253;44.840;10.444;2023-04-25T01:18:12;11.50;99.90
26621;DHT22;14253;44.840;10.444;2023-04-25T01:20:38;11.50;99.90
26621;DHT22;14253;44.840;10.444;2023-04-25T01:23:08;11.50;99.90
26621;DHT22;14253;44.840;10.444;2023-04-25T01:25:35;11.50;99.90
26621;DHT22;14253;44.840;10.444;2023-04-25T01:28:01;11.40;99.90
26621;DHT22;14253;44.840;10.444;2023-04-25T01:30:29;11.40;99.90
26621;DHT22;14253;44.840;10.444;2023-04-25T01:32:56;11.30;99.90
26621;DHT22;14253;44.840;10.444;2023-04-25T01:35:22;11.20;99.90
26621;DHT22;14253;44.840;10.444;2023-04-25T01:37:53;11.10;99.90
26621;DHT22;14253;44.840;10.444;2023-04-25T01:40:20;11.00;99.90
26621;DHT22;14253;44.840;10.444;2023-04-25T01:42:47;11.00;99.90
26621;DHT22;14253;44.840;10.444;2023-04-25T01:45:13;11.00;99.90
26621;DHT22;14253;44.840;10.444;2023-04-25T01:47:39;11.00;99.90
26621;DHT22;14253;44.840;10.444;2023-04-25T01:50:07;11.00;99.90
26621;DHT22;14253;44.840;10.444;2023-04-25T01:52:34;11.10;99.90
26621;DHT22;14253;44.840;10.444;2023-04-25T01:55:04;11.10;99.90
26621;DHT22;14253;44.840;10.444;2023-04-25T01:57:32;11.10;99.90
26621;DHT22;14253;44.840;10.444;2023-04-25T02:00:02;11.10;99.90
26621;DHT22;14253;44.840;10.444;2023-04-25T02:02:40;11.10;99.90
26621;DHT22;14253;44.840;10.444;2023-04-25T02:05:17;11.10;99.90
26621;DHT22;14253;44.840;10.444;2023-04-25T02:07:43;11.10;99.90
26621;DHT22;14253;44.840;10.444;2023-04-25T02:10:09;11.20;99.90
26621;DHT22;14253;44.840;10.444;2023-04-25T02:12:44;11.20;99.90
26621;DHT22;14253;44.840;10.444;2023-04-25T02:15:20;11.10;99.90
26621;DHT22;14253;44.840;10.444;2023-04-25T02:17:52;11.00;99.90
26621;DHT22;14253;44.840;10.444;2023-04-25T02:20:22;11.10;99.90
26621;DHT22;14253;44.840;10.444;2023-04-25T02:22:48;11.10;99.90
26621;DHT22;14253;44.840;10.444;2023-04-25T02:25:15;11.10;99.90
26621;DHT22;14253;44.840;10.444;2023-04-25T02:27:42;11.10;99.90
26621;DHT22;14253;44.840;10.444;2023-04-25T02:30:11;11.10;99.90
26621;DHT22;14253;44.840;10.444;2023-04-25T02:32:38;11.10;99.90
26621;DHT22;14253;44.840;10.444;2023-04-25T02:35:04;11.10;99.90
26621;DHT22;14253;44.840;10.444;2023-04-25T02:37:31;11.10;99.90
26621;DHT22;14253;44.840;10.444;2023-04-25T02:39:57;11.00;99.90
26621;DHT22;14253;44.840;10.444;2023-04-25T02:42:23;10.90;99.90
26621;DHT22;14253;44.840;10.444;2023-04-25T02:44:49;10.80;99.90
26621;DHT22;14253;44.840;10.444;2023-04-25T02:47:15;10.80;99.90
26621;DHT22;14253;44.840;10.444;2023-04-25T02:49:42;10.80;99.90
26621;DHT22;14253;44.840;10.444;2023-04-25T02:52:09;10.90;99.90
26621;DHT22;14253;44.840;10.444;2023-04-25T02:54:35;10.90;99.90
26621;DHT22;14253;44.840;10.444;2023-04-25T02:57:02;10.90;99.90
26621;DHT22;14253;44.840;10.444;2023-04-25T02:59:34;10.90;99.90
26621;DHT22;14253;44.840;10.444;2023-04-25T03:02:00;10.80;99.90
26621;DHT22;14253;44.840;10.444;2023-04-25T03:04:29;10.80;99.90
26621;DHT22;14253;44.840;10.444;2023-04-25T03:06:57;10.80;99.90
26621;DHT22;14253;44.840;10.444;2023-04-25T03:09:23;10.70;99.90
26621;DHT22;14253;44.840;10.444;2023-04-25T03:11:50;10.60;99.90
26621;DHT22;14253;44.840;10.444;2023-04-25T03:14:17;10.60;99.90
26621;DHT22;14253;44.840;10.444;2023-04-25T03:16:43;10.50;99.90
26621;DHT22;14253;44.840;10.444;2023-04-25T03:19:09;10.50;1.00
26621;DHT22;14253;44.840;10.444;2023-04-25T03:21:36;10.60;1.00
26621;DHT22;14253;44.840;10.444;2023-04-25T03:24:03;10.60;1.00
26621;DHT22;14253;44.840;10.444;2023-04-25T03:26:30;10.60;1.00
26621;DHT22;14253;44.840;10.444;2023-04-25T03:28:56;10.70;1.00
26621;DHT22;14253;44.840;10.444;2023-04-25T03:31:22;10.70;1.00
26621;DHT22;14253;44.840;10.444;2023-04-25T03:33:48;10.70;1.00
26621;DHT22;14253;44.840;10.444;2023-04-25T03:36:16;10.70;1.00
26621;DHT22;14253;44.840;10.444;2023-04-25T03:38:42;10.70;1.00
26621;DHT22;14253;44.840;10.444;2023-04-25T03:41:08;10.70;1.00
26621;DHT22;14253;44.840;10.444;2023-04-25T03:43:47;10.70;1.00
26621;DHT22;14253;44.840;10.444;2023-04-25T03:46:15;10.80;1.00
26621;DHT22;14253;44.840;10.444;2023-04-25T03:48:40;10.70;1.00
26621;DHT22;14253;44.840;10.444;2023-04-25T03:51:09;10.70;1.00
26621;DHT22;14253;44.840;10.444;2023-04-25T03:53:38;10.60;1.00
26621;DHT22;14253;44.840;10.444;2023-04-25T03:56:24;10.70;99.90
26621;DHT22;14253;44.840;10.444;2023-04-25T03:58:58;10.70;99.90
26621;DHT22;14253;44.840;10.444;2023-04-25T04:01:27;10.80;99.90
26621;DHT22;14253;44.840;10.444;2023-04-25T04:03:53;10.60;99.90
26621;DHT22;14253;44.840;10.444;2023-04-25T04:06:19;10.40;99.90
26621;DHT22;14253;44.840;10.444;2023-04-25T04:08:50;10.20;99.90
26621;DHT22;14253;44.840;10.444;2023-04-25T04:11:16;9.90;99.90
26621;DHT22;14253;44.840;10.444;2023-04-25T04:13:42;9.80;99.90
26621;DHT22;14253;44.840;10.444;2023-04-25T04:16:08;9.70;99.90
26621;DHT22;14253;44.840;10.444;2023-04-25T04:18:35;9.80;99.90
26621;DHT22;14253;44.840;10.444;2023-04-25T04:21:01;9.60;99.90
26621;DHT22;14253;44.840;10.444;2023-04-25T04:23:30;9.40;99.90
26621;DHT22;14253;44.840;10.444;2023-04-25T04:25:57;9.30;1.00
26621;DHT22;14253;44.840;10.444;2023-04-25T04:28:28;9.30;1.00
26621;DHT22;14253;44.840;10.444;2023-04-25T04:31:15;9.40;1.00
26621;DHT22;14253;44.840;10.444;2023-04-25T04:33:42;9.30;1.00
26621;DHT22;14253;44.840;10.444;2023-04-25T04:36:08;9.30;1.00
26621;DHT22;14253;44.840;10.444;2023-04-25T04:38:34;9.40;1.00
26621;DHT22;14253;44.840;10.444;2023-04-25T04:41:02;9.30;1.00
26621;DHT22;14253;44.840;10.444;2023-04-25T04:43:47;9.40;1.00
26621;DHT22;14253;44.840;10.444;2023-04-25T04:46:32;9.30;1.00
26621;DHT22;14253;44.840;10.444;2023-04-25T04:49:23;9.30;1.00
26621;DHT22;14253;44.840;10.444;2023-04-25T04:52:15;9.30;1.00
26621;DHT22;14253;44.840;10.444;2023-04-25T04:55:01;9.50;1.00
26621;DHT22;14253;44.840;10.444;2023-04-25T04:57:43;9.60;1.00
26621;DHT22;14253;44.840;10.444;2023-04-25T05:00:33;9.90;1.00
26621;DHT22;14253;44.840;10.444;2023-04-25T05:03:17;10.00;99.90
26621;DHT22;14253;44.840;10.444;2023-04-25T05:06:01;10.10;1.00
26621;DHT22;14253;44.840;10.444;2023-04-25T05:08:50;10.00;99.90
26621;DHT22;14253;44.840;10.444;2023-04-25T05:11:36;9.70;1.00
26621;DHT22;14253;44.840;10.444;2023-04-25T05:14:20;9.70;1.00
26621;DHT22;14253;44.840;10.444;2023-04-25T05:17:02;9.60;1.00
26621;DHT22;14253;44.840;10.444;2023-04-25T05:19:45;9.60;1.00
26621;DHT22;14253;44.840;10.444;2023-04-25T05:22:33;9.60;1.00
26621;DHT22;14253;44.840;10.444;2023-04-25T05:25:09;9.50;1.00
26621;DHT22;14253;44.840;10.444;2023-04-25T05:27:59;9.50;1.00
26621;DHT22;14253;44.840;10.444;2023-04-25T05:30:48;9.60;1.00
26621;DHT22;14253;44.840;10.444;2023-04-25T05:33:18;9.70;1.00
26621;DHT22;14253;44.840;10.444;2023-04-25T05:35:45;9.70;1.00
26621;DHT22;14253;44.840;10.444;2023-04-25T05:38:11;9.70;1.00
26621;DHT22;14253;44.840;10.444;2023-04-25T05:40:55;9.80;1.00
26621;DHT22;14253;44.840;10.444;2023-04-25T05:43:57;9.90;1.00
26621;DHT22;14253;44.840;10.444;2023-04-25T05:46:49;10.00;1.00
26621;DHT22;14253;44.840;10.444;2023-04-25T05:49:24;10.10;1.00
26621;DHT22;14253;44.840;10.444;2023-04-25T05:52:02;10.20;1.00
26621;DHT22;14253;44.840;10.444;2023-04-25T05:54:31;10.30;1.00
26621;DHT22;14253;44.840;10.444;2023-04-25T05:56:57;10.40;1.00
26621;DHT22;14253;44.840;10.444;2023-04-25T05:59:23;10.60;1.00
26621;DHT22;14253;44.840;10.444;2023-04-25T06:01:49;10.60;1.00
26621;DHT22;14253;44.840;10.444;2023-04-25T06:04:15;10.80;1.00
26621;DHT22;14253;44.840;10.444;2023-04-25T06:06:41;10.90;1.00
26621;DHT22;14253;44.840;10.444;2023-04-25T06:09:07;11.00;1.00
26621;DHT22;14253;44.840;10.444;2023-04-25T06:11:33;11.20;1.00
26621;DHT22;14253;44.840;10.444;2023-04-25T06:13:59;11.30;1.00
26621;DHT22;14253;44.840;10.444;2023-04-25T06:16:26;11.40;1.00
26621;DHT22;14253;44.840;10.444;2023-04-25T06:18:52;11.60;1.00
26621;DHT22;14253;44.840;10.444;2023-04-25T06:21:18;11.70;1.00
26621;DHT22;14253;44.840;10.444;2023-04-25T06:23:44;11.70;1.00
26621;DHT22;14253;44.840;10.444;2023-04-25T06:26:17;11.90;1.00
26621;DHT22;14253;44.840;10.444;2023-04-25T06:28:45;12.00;1.00
26621;DHT22;14253;44.840;10.444;2023-04-25T06:31:11;12.20;1.00
26621;DHT22;14253;44.840;10.444;2023-04-25T06:33:38;12.30;1.00
26621;DHT22;14253;44.840;10.444;2023-04-25T06:36:04;12.60;1.00
26621;DHT22;14253;44.840;10.444;2023-04-25T06:38:31;12.80;1.00
26621;DHT22;14253;44.840;10.444;2023-04-25T06:40:57;13.00;99.90
26621;DHT22;14253;44.840;10.444;2023-04-25T06:43:25;13.10;99.90
26621;DHT22;14253;44.840;10.444;2023-04-25T06:46:10;13.20;99.90
26621;DHT22;14253;44.840;10.444;2023-04-25T06:48:42;13.40;99.90
26621;DHT22;14253;44.840;10.444;2023-04-25T06:51:08;13.40;99.90
26621;DHT22;14253;44.840;10.444;2023-04-25T06:53:35;13.50;99.90
26621;DHT22;14253;44.840;10.444;2023-04-25T06:56:05;13.60;99.90
26621;DHT22;14253;44.840;10.444;2023-04-25T06:58:49;13.50;99.90
26621;DHT22;14253;44.840;10.444;2023-04-25T07:01:29;13.60;99.90
26621;DHT22;14253;44.840;10.444;2023-04-25T07:03:59;13.80;99.90
26621;DHT22;14253;44.840;10.444;2023-04-25T07:06:26;14.00;99.90
26621;DHT22;14253;44.840;10.444;2023-04-25T07:08:55;14.10;99.90
26621;DHT22;14253;44.840;10.444;2023-04-25T07:11:22;14.10;99.90
26621;DHT22;14253;44.840;10.444;2023-04-25T07:13:48;14.20;99.90
26621;DHT22;14253;44.840;10.444;2023-04-25T07:16:14;14.20;99.90
26621;DHT22;14253;44.840;10.444;2023-04-25T07:18:40;14.20;99.90
26621;DHT22;14253;44.840;10.444;2023-04-25T07:21:06;14.20;99.90
26621;DHT22;14253;44.840;10.444;2023-04-25T07:23:34;14.20;99.90
26621;DHT22;14253;44.840;10.444;2023-04-25T07:26:06;14.20;99.90
26621;DHT22;14253;44.840;10.444;2023-04-25T07:28:32;14.10;99.90
26621;DHT22;14253;44.840;10.444;2023-04-25T07:30:58;14.10;99.90
26621;DHT22;14253;44.840;10.444;2023-04-25T07:33:24;14.00;99.90
26621;DHT22;14253;44.840;10.444;2023-04-25T07:35:50;14.10;99.90
26621;DHT22;14253;44.840;10.444;2023-04-25T07:38:17;14.10;99.90
26621;DHT22;14253;44.840;10.444;2023-04-25T07:40:43;14.10;99.90
26621;DHT22;14253;44.840;10.444;2023-04-25T07:43:10;14.20;99.90
26621;DHT22;14253;44.840;10.444;2023-04-25T07:45:47;14.20;99.90
26621;DHT22;14253;44.840;10.444;2023-04-25T07:48:19;14.20;99.90
26621;DHT22;14253;44.840;10.444;2023-04-25T07:50:46;14.20;99.90
26621;DHT22;14253;44.840;10.444;2023-04-25T07:53:12;14.30;99.90
26621;DHT22;14253;44.840;10.444;2023-04-25T07:55:45;14.30;99.90
26621;DHT22;14253;44.840;10.444;2023-04-25T07:58:15;14.30;99.90
26621;DHT22;14253;44.840;10.444;2023-04-25T08:00:44;14.30;99.90
26621;DHT22;14253;44.840;10.444;2023-04-25T08:03:33;14.30;99.90
26621;DHT22;14253;44.840;10.444;2023-04-25T08:06:01;14.40;99.90
26621;DHT22;14253;44.840;10.444;2023-04-25T08:08:30;14.50;99.90
26621;DHT22;14253;44.840;10.444;2023-04-25T08:10:56;14.50;99.90
26621;DHT22;14253;44.840;10.444;2023-04-25T08:13:22;14.70;99.90
26621;DHT22;14253;44.840;10.444;2023-04-25T08:15:48;14.70;99.90
26621;DHT22;14253;44.840;10.444;2023-04-25T08:18:14;14.70;99.90
26621;DHT22;14253;44.840;10.444;2023-04-25T08:20:41;14.60;99.90
26621;DHT22;14253;44.840;10.444;2023-04-25T08:23:09;14.50;99.90
26621;DHT22;14253;44.840;10.444;2023-04-25T08:25:46;14.50;99.90
26621;DHT22;14253;44.840;10.444;2023-04-25T08:28:15;14.40;99.90
26621;DHT22;14253;44.840;10.444;2023-04-25T08:30:42;14.40;99.90
26621;DHT22;14253;44.840;10.444;2023-04-25T08:33:11;14.50;99.90
26621;DHT22;14253;44.840;10.444;2023-04-25T08:35:57;14.40;99.90
26621;DHT22;14253;44.840;10.444;2023-04-25T08:38:25;14.50;99.90
26621;DHT22;14253;44.840;10.444;2023-04-25T08:40:52;14.70;99.90
26621;DHT22;14253;44.840;10.444;2023-04-25T08:43:20;15.20;99.90
26621;DHT22;14253;44.840;10.444;2023-04-25T08:45:47;15.60;99.90
26621;DHT22;14253;44.840;10.444;2023-04-25T08:48:33;15.70;99.90
26621;DHT22;14253;44.840;10.444;2023-04-25T08:51:02;16.00;99.90
26621;DHT22;14253;44.840;10.444;2023-04-25T08:53:31;16.10;99.90
26621;DHT22;14253;44.840;10.444;2023-04-25T08:56:00;16.00;99.90
26621;DHT22;14253;44.840;10.444;2023-04-25T08:58:34;16.10;99.90
26621;DHT22;14253;44.840;10.444;2023-04-25T09:01:00;16.50;99.90
26621;DHT22;14253;44.840;10.444;2023-04-25T09:03:29;16.90;99.90
26621;DHT22;14253;44.840;10.444;2023-04-25T09:05:55;16.70;99.90
26621;DHT22;14253;44.840;10.444;2023-04-25T09:08:21;16.50;99.90
26621;DHT22;14253;44.840;10.444;2023-04-25T09:10:47;16.80;99.90
26621;DHT22;14253;44.840;10.444;2023-04-25T09:13:14;17.00;99.90
26621;DHT22;14253;44.840;10.444;2023-04-25T09:16:08;17.20;99.90
26621;DHT22;14253;44.840;10.444;2023-04-25T09:18:46;17.30;99.90
26621;DHT22;14253;44.840;10.444;2023-04-25T09:21:13;17.50;99.90
26621;DHT22;14253;44.840;10.444;2023-04-25T09:23:46;17.80;99.90
26621;DHT22;14253;44.840;10.444;2023-04-25T09:26:19;18.20;99.90
26621;DHT22;14253;44.840;10.444;2023-04-25T09:28:46;18.50;99.90
26621;DHT22;14253;44.840;10.444;2023-04-25T09:31:24;18.60;99.90
26621;DHT22;14253;44.840;10.444;2023-04-25T09:34:00;18.20;99.90
26621;DHT22;14253;44.840;10.444;2023-04-25T09:36:30;18.40;99.90
26621;DHT22;14253;44.840;10.444;2023-04-25T09:39:14;18.50;99.90
26621;DHT22;14253;44.840;10.444;2023-04-25T09:41:44;18.40;99.90
26621;DHT22;14253;44.840;10.444;2023-04-25T09:44:13;18.40;99.90
26621;DHT22;14253;44.840;10.444;2023-04-25T09:46:41;18.60;99.90
26621;DHT22;14253;44.840;10.444;2023-04-25T09:49:20;18.70;99.90
26621;DHT22;14253;44.840;10.444;2023-04-25T09:51:59;18.80;99.90
26621;DHT22;14253;44.840;10.444;2023-04-25T09:54:31;18.80;99.90
26621;DHT22;14253;44.840;10.444;2023-04-25T09:57:20;18.50;99.90
26621;DHT22;14253;44.840;10.444;2023-04-25T09:59:52;18.30;99.90
26621;DHT22;14253;44.840;10.444;2023-04-25T10:02:21;18.70;99.90
26621;DHT22;14253;44.840;10.444;2023-04-25T10:04:50;18.70;99.90
26621;DHT22;14253;44.840;10.444;2023-04-25T10:07:27;18.30;99.90
26621;DHT22;14253;44.840;10.444;2023-04-25T10:09:59;18.20;99.90
26621;DHT22;14253;44.840;10.444;2023-04-25T10:12:26;18.30;99.90
26621;DHT22;14253;44.840;10.444;2023-04-25T10:14:52;18.40;99.90
26621;DHT22;14253;44.840;10.444;2023-04-25T10:17:20;18.50;99.90
26621;DHT22;14253;44.840;10.444;2023-04-25T10:19:49;18.30;99.90
26621;DHT22;14253;44.840;10.444;2023-04-25T10:22:36;18.10;99.90
26621;DHT22;14253;44.840;10.444;2023-04-25T10:25:04;18.30;99.90
26621;DHT22;14253;44.840;10.444;2023-04-25T10:27:30;18.30;99.90
26621;DHT22;14253;44.840;10.444;2023-04-25T10:30:08;18.30;99.90
26621;DHT22;14253;44.840;10.444;2023-04-25T10:32:37;18.50;99.90
26621;DHT22;14253;44.840;10.444;2023-04-25T10:35:16;18.70;99.90
26621;DHT22;14253;44.840;10.444;2023-04-25T10:40:24;18.80;99.90
26621;DHT22;14253;44.840;10.444;2023-04-25T10:42:52;18.60;99.90
26621;DHT22;14253;44.840;10.444;2023-04-25T10:45:20;18.60;99.90
26621;DHT22;14253;44.840;10.444;2023-04-25T10:47:46;18.50;99.90
26621;DHT22;14253;44.840;10.444;2023-04-25T10:50:14;18.60;99.90
26621;DHT22;14253;44.840;10.444;2023-04-25T10:52:42;18.50;99.90
26621;DHT22;14253;44.840;10.444;2023-04-25T10:55:08;18.80;99.90
26621;DHT22;14253;44.840;10.444;2023-04-25T10:57:40;18.90;99.90
26621;DHT22;14253;44.840;10.444;2023-04-25T11:02:42;18.40;99.90
26621;DHT22;14253;44.840;10.444;2023-04-25T11:05:10;18.30;99.90
26621;DHT22;14253;44.840;10.444;2023-04-25T11:07:50;18.30;99.90
26621;DHT22;14253;44.840;10.444;2023-04-25T11:10:17;18.20;99.90
26621;DHT22;14253;44.840;10.444;2023-04-25T11:12:45;18.50;99.90
26621;DHT22;14253;44.840;10.444;2023-04-25T11:15:11;18.60;99.90
26621;DHT22;14253;44.840;10.444;2023-04-25T11:17:37;18.30;99.90
26621;DHT22;14253;44.840;10.444;2023-04-25T11:20:05;18.40;99.90
26621;DHT22;14253;44.840;10.444;2023-04-25T11:22:34;18.40;99.90
26621;DHT22;14253;44.840;10.444;2023-04-25T11:25:05;18.30;99.90
26621;DHT22;14253;44.840;10.444;2023-04-25T11:27:31;18.70;99.90
26621;DHT22;14253;44.840;10.444;2023-04-25T11:29:57;19.00;99.90
26621;DHT22;14253;44.840;10.444;2023-04-25T11:32:23;19.50;99.90
26621;DHT22;14253;44.840;10.444;2023-04-25T11:34:49;19.70;99.90
26621;DHT22;14253;44.840;10.444;2023-04-25T11:37:15;19.80;99.90
26621;DHT22;14253;44.840;10.444;2023-04-25T11:39:45;19.60;99.90
26621;DHT22;14253;44.840;10.444;2023-04-25T11:42:14;19.30;99.90
26621;DHT22;14253;44.840;10.444;2023-04-25T11:44:40;18.80;99.90
26621;DHT22;14253;44.840;10.444;2023-04-25T11:47:06;18.80;99.90
26621;DHT22;14253;44.840;10.444;2023-04-25T11:49:32;18.90;99.90
26621;DHT22;14253;44.840;10.444;2023-04-25T11:51:58;19.10;99.90
26621;DHT22;14253;44.840;10.444;2023-04-25T11:54:24;19.30;99.90
26621;DHT22;14253;44.840;10.444;2023-04-25T11:56:50;19.10;99.90
26621;DHT22;14253;44.840;10.444;2023-04-25T11:59:16;18.80;99.90
26621;DHT22;14253;44.840;10.444;2023-04-25T12:01:48;18.70;99.90
26621;DHT22;14253;44.840;10.444;2023-04-25T12:04:20;18.60;99.90
26621;DHT22;14253;44.840;10.444;2023-04-25T12:06:47;18.70;99.90
26621;DHT22;14253;44.840;10.444;2023-04-25T12:09:16;18.90;99.90
26621;DHT22;14253;44.840;10.444;2023-04-25T12:11:48;19.20;99.90
26621;DHT22;14253;44.840;10.444;2023-04-25T12:14:40;19.50;99.90
26621;DHT22;14253;44.840;10.444;2023-04-25T12:17:13;19.70;99.90
26621;DHT22;14253;44.840;10.444;2023-04-25T12:19:40;19.80;99.90
26621;DHT22;14253;44.840;10.444;2023-04-25T12:22:22;20.10;99.90
26621;DHT22;14253;44.840;10.444;2023-04-25T12:24:49;20.10;99.90
26621;DHT22;14253;44.840;10.444;2023-04-25T12:27:16;19.80;99.90
26621;DHT22;14253;44.840;10.444;2023-04-25T12:29:55;19.60;99.90
26621;DHT22;14253;44.840;10.444;2023-04-25T12:32:21;19.80;99.90
26621;DHT22;14253;44.840;10.444;2023-04-25T12:34:47;19.90;99.90
26621;DHT22;14253;44.840;10.444;2023-04-25T12:37:13;19.90;99.90
26621;DHT22;14253;44.840;10.444;2023-04-25T12:39:39;20.10;99.90
26621;DHT22;14253;44.840;10.444;2023-04-25T12:42:05;20.10;99.90
26621;DHT22;14253;44.840;10.444;2023-04-25T12:44:34;20.10;99.90
26621;DHT22;14253;44.840;10.444;2023-04-25T12:47:00;20.00;99.90
26621;DHT22;14253;44.840;10.444;2023-04-25T12:49:26;20.00;99.90
26621;DHT22;14253;44.840;10.444;2023-04-25T12:51:52;20.20;99.90
26621;DHT22;14253;44.840;10.444;2023-04-25T12:54:18;20.30;99.90
26621;DHT22;14253;44.840;10.444;2023-04-25T12:56:44;20.50;99.90
26621;DHT22;14253;44.840;10.444;2023-04-25T12:59:10;20.50;99.90
26621;DHT22;14253;44.840;10.444;2023-04-25T13:01:36;20.50;99.90
26621;DHT22;14253;44.840;10.444;2023-04-25T13:04:02;20.40;99.90
26621;DHT22;14253;44.840;10.444;2023-04-25T13:06:28;20.20;99.90
26621;DHT22;14253;44.840;10.444;2023-04-25T13:08:56;19.90;99.90
26621;DHT22;14253;44.840;10.444;2023-04-25T13:11:22;19.50;99.90
26621;DHT22;14253;44.840;10.444;2023-04-25T13:13:48;19.30;99.90
26621;DHT22;14253;44.840;10.444;2023-04-25T13:16:14;19.30;99.90
26621;DHT22;14253;44.840;10.444;2023-04-25T13:18:40;19.40;99.90
26621;DHT22;14253;44.840;10.444;2023-04-25T13:21:06;19.80;99.90
26621;DHT22;14253;44.840;10.444;2023-04-25T13:23:33;20.20;99.90
26621;DHT22;14253;44.840;10.444;2023-04-25T13:25:59;20.10;99.90
26621;DHT22;14253;44.840;10.444;2023-04-25T13:28:27;19.90;99.90
26621;DHT22;14253;44.840;10.444;2023-04-25T13:30:53;19.40;99.90
26621;DHT22;14253;44.840;10.444;2023-04-25T13:33:20;19.30;99.90
26621;DHT22;14253;44.840;10.444;2023-04-25T13:35:48;19.40;99.90
26621;DHT22;14253;44.840;10.444;2023-04-25T13:38:21;19.80;99.90
26621;DHT22;14253;44.840;10.444;2023-04-25T13:40:48;20.00;99.90
26621;DHT22;14253;44.840;10.444;2023-04-25T13:43:14;20.40;99.90
26621;DHT22;14253;44.840;10.444;2023-04-25T13:45:40;20.80;99.90
26621;DHT22;14253;44.840;10.444;2023-04-25T13:48:06;20.90;99.90
26621;DHT22;14253;44.840;10.444;2023-04-25T13:50:32;20.80;99.90
26621;DHT22;14253;44.840;10.444;2023-04-25T13:52:58;21.00;99.90
26621;DHT22;14253;44.840;10.444;2023-04-25T13:55:26;20.90;99.90
26621;DHT22;14253;44.840;10.444;2023-04-25T13:57:52;20.60;99.90
26621;DHT22;14253;44.840;10.444;2023-04-25T14:00:18;20.20;99.90
26621;DHT22;14253;44.840;10.444;2023-04-25T14:02:44;19.70;99.90
26621;DHT22;14253;44.840;10.444;2023-04-25T14:05:10;19.50;99.90
26621;DHT22;14253;44.840;10.444;2023-04-25T14:07:36;19.70;99.90
26621;DHT22;14253;44.840;10.444;2023-04-25T14:10:03;20.00;99.90
26621;DHT22;14253;44.840;10.444;2023-04-25T14:12:30;20.50;99.90
26621;DHT22;14253;44.840;10.444;2023-04-25T14:14:56;20.80;99.90
26621;DHT22;14253;44.840;10.444;2023-04-25T14:17:22;20.80;99.90
26621;DHT22;14253;44.840;10.444;2023-04-25T14:19:50;20.50;99.90
26621;DHT22;14253;44.840;10.444;2023-04-25T14:22:16;20.20;99.90
26621;DHT22;14253;44.840;10.444;2023-04-25T14:24:42;20.20;99.90
26621;DHT22;14253;44.840;10.444;2023-04-25T14:27:08;20.40;99.90
26621;DHT22;14253;44.840;10.444;2023-04-25T14:29:34;20.90;99.90
26621;DHT22;14253;44.840;10.444;2023-04-25T14:32:00;21.30;99.90
26621;DHT22;14253;44.840;10.444;2023-04-25T14:34:26;21.40;99.90
26621;DHT22;14253;44.840;10.444;2023-04-25T14:36:52;21.20;99.90
26621;DHT22;14253;44.840;10.444;2023-04-25T14:39:18;21.00;99.90
26621;DHT22;14253;44.840;10.444;2023-04-25T14:41:44;20.70;99.90
26621;DHT22;14253;44.840;10.444;2023-04-25T14:44:10;20.20;99.90
26621;DHT22;14253;44.840;10.444;2023-04-25T14:46:36;20.30;99.90
26621;DHT22;14253;44.840;10.444;2023-04-25T14:49:03;20.20;99.90
26621;DHT22;14253;44.840;10.444;2023-04-25T14:51:29;20.00;99.90
26621;DHT22;14253;44.840;10.444;2023-04-25T14:53:56;20.00;99.90
26621;DHT22;14253;44.840;10.444;2023-04-25T14:56:22;19.70;99.90
26621;DHT22;14253;44.840;10.444;2023-04-25T14:58:48;19.50;99.90
26621;DHT22;14253;44.840;10.444;2023-04-25T15:01:14;19.60;99.90
26621;DHT22;14253;44.840;10.444;2023-04-25T15:03:40;19.60;99.90
26621;DHT22;14253;44.840;10.444;2023-04-25T15:06:06;19.70;99.90
26621;DHT22;14253;44.840;10.444;2023-04-25T15:08:33;19.90;99.90
26621;DHT22;14253;44.840;10.444;2023-04-25T15:10:59;20.30;99.90
26621;DHT22;14253;44.840;10.444;2023-04-25T15:13:26;20.60;99.90
26621;DHT22;14253;44.840;10.444;2023-04-25T15:15:52;20.50;99.90
26621;DHT22;14253;44.840;10.444;2023-04-25T15:18:22;20.00;99.90
26621;DHT22;14253;44.840;10.444;2023-04-25T15:20:50;19.20;99.90
26621;DHT22;14253;44.840;10.444;2023-04-25T15:23:17;18.10;99.90
26621;DHT22;14253;44.840;10.444;2023-04-25T15:25:43;17.20;99.90
26621;DHT22;14253;44.840;10.444;2023-04-25T15:28:09;16.30;99.90
26621;DHT22;14253;44.840;10.444;2023-04-25T15:30:35;15.50;99.90
26621;DHT22;14253;44.840;10.444;2023-04-25T15:33:02;15.00;99.90
26621;DHT22;14253;44.840;10.444;2023-04-25T15:35:28;15.00;99.90
26621;DHT22;14253;44.840;10.444;2023-04-25T15:37:54;15.00;99.90
26621;DHT22;14253;44.840;10.444;2023-04-25T15:40:20;14.90;99.90